createdAt,value
2022-11-09T05:00:20.345Z,8.47
2022-11-09T05:02:49.155Z,8.48
2022-11-09T05:05:16.366Z,8.48
2022-11-09T05:07:44.142Z,8.49
2022-11-09T05:10:11.974Z,8.48
2022-11-09T05:12:44.782Z,8.48
2022-11-09T05:15:13.887Z,8.48
2022-11-09T05:17:41.513Z,8.46
2022-11-09T05:20:09.852Z,8.43
2022-11-09T05:22:59.396Z,8.39
2022-11-09T05:25:26.981Z,8.36
2022-11-09T05:27:55.062Z,8.33
2022-11-09T05:30:23.505Z,8.30
2022-11-09T05:32:54.903Z,8.26
2022-11-09T05:35:22.609Z,8.24
2022-11-09T05:37:51.358Z,8.23
2022-11-09T05:40:20.826Z,8.23
2022-11-09T05:42:48.020Z,8.21
2022-11-09T05:45:41.523Z,8.16
2022-11-09T05:48:07.681Z,8.16
2022-11-09T05:50:35.992Z,8.14
2022-11-09T05:53:13.151Z,8.14
2022-11-09T05:55:40.583Z,8.10
2022-11-09T05:58:08.765Z,8.08
2022-11-09T06:00:36.500Z,8.07
2022-11-09T06:03:09.496Z,8.06
2022-11-09T06:05:40.529Z,8.06
2022-11-09T06:08:14.580Z,8.03
2022-11-09T06:10:43.670Z,8.02
2022-11-09T06:13:12.108Z,8.00
2022-11-09T06:15:39.782Z,7.98
2022-11-09T06:18:07.760Z,7.94
2022-11-09T06:20:36.195Z,7.94
2022-11-09T06:23:04.533Z,7.94
2022-11-09T06:25:33.719Z,7.95
2022-11-09T06:28:02.649Z,7.96
2022-11-09T06:30:31.671Z,8.01
2022-11-09T06:33:01.127Z,8.01
2022-11-09T06:35:29.330Z,7.98
2022-11-09T06:38:01.472Z,8.00
2022-11-09T06:40:29.267Z,8.06
2022-11-09T06:42:59.619Z,8.10
2022-11-09T06:45:29.077Z,8.14
2022-11-09T06:48:01.121Z,8.20
2022-11-09T06:50:31.005Z,8.24
2022-11-09T06:53:00.755Z,8.26
2022-11-09T06:55:30.232Z,8.29
2022-11-09T06:57:59.072Z,8.35
2022-11-09T07:00:28.823Z,8.40
2022-11-09T07:02:56.018Z,8.44
2022-11-09T07:05:23.893Z,8.46
2022-11-09T07:07:50.886Z,8.51
2022-11-09T07:10:18.105Z,8.56
2022-11-09T07:12:45.492Z,8.58
2022-11-09T07:15:13.057Z,8.60
2022-11-09T07:17:41.551Z,8.64
2022-11-09T07:20:10.564Z,8.68
2022-11-09T07:22:40.111Z,8.73
2022-11-09T07:25:08.871Z,8.79
2022-11-09T07:27:36.363Z,8.84
2022-11-09T07:30:04.676Z,8.89
2022-11-09T07:35:23.815Z,9.01
2022-11-09T07:37:50.769Z,9.03
2022-11-09T07:40:17.788Z,9.08
2022-11-09T07:42:44.850Z,9.11
2022-11-09T07:45:12.232Z,9.14
2022-11-09T07:47:40.064Z,9.16
2022-11-09T07:50:07.566Z,9.21
2022-11-09T07:52:34.638Z,9.25
2022-11-09T07:55:01.692Z,9.28
2022-11-09T07:57:28.686Z,9.28
2022-11-09T07:59:55.712Z,9.31
2022-11-09T08:02:23.047Z,9.34
2022-11-09T08:04:50.135Z,9.34
2022-11-09T08:07:17.276Z,9.35
2022-11-09T08:09:44.402Z,9.39
2022-11-09T08:12:11.416Z,9.43
2022-11-09T08:14:38.526Z,9.44
2022-11-09T08:17:05.734Z,9.45
2022-11-09T08:19:32.952Z,9.47
2022-11-09T08:22:00.559Z,9.51
2022-11-09T08:24:27.592Z,9.54
2022-11-09T08:26:56.128Z,9.59
2022-11-09T08:29:23.436Z,9.64
2022-11-09T08:31:51.786Z,9.69
2022-11-09T08:34:20.060Z,9.71
2022-11-09T08:36:47.693Z,9.73
2022-11-09T08:39:14.704Z,9.74
2022-11-09T08:41:42.128Z,9.75
2022-11-09T08:44:09.231Z,9.79
2022-11-09T08:46:41.088Z,9.81
2022-11-09T08:49:09.175Z,9.87
2022-11-09T08:51:37.017Z,9.93
2022-11-09T08:54:04.100Z,10.00
2022-11-09T08:56:31.246Z,10.07
2022-11-09T08:58:58.313Z,10.13
2022-11-09T09:01:25.801Z,10.20
2022-11-09T09:03:52.962Z,10.29
2022-11-09T09:06:20.101Z,10.40
2022-11-09T09:08:47.090Z,10.51
2022-11-09T09:11:14.320Z,10.62
2022-11-09T09:13:43.599Z,10.75
2022-11-09T09:16:15.532Z,10.87
2022-11-09T09:18:43.306Z,10.98
2022-11-09T09:21:11.440Z,11.06
2022-11-09T09:23:38.631Z,11.17
2022-11-09T09:26:06.173Z,11.28
2022-11-09T09:28:34.143Z,11.40
2022-11-09T09:31:02.311Z,11.50
2022-11-09T09:33:29.954Z,11.61
2022-11-09T09:35:58.361Z,11.71
2022-11-09T09:38:27.601Z,11.79
2022-11-09T09:41:03.827Z,11.85
2022-11-09T09:43:43.531Z,11.90
2022-11-09T09:47:03.729Z,11.96
2022-11-09T09:49:35.564Z,12.05
2022-11-09T09:52:17.978Z,12.13
2022-11-09T09:54:55.026Z,12.19
2022-11-09T09:57:23.478Z,12.24
2022-11-09T09:59:57.647Z,12.26
2022-11-09T10:02:28.595Z,12.27
2022-11-09T10:05:02.350Z,12.29
2022-11-09T10:07:44.212Z,12.31
2022-11-09T10:10:50.368Z,12.33
2022-11-09T10:13:35.545Z,12.35
2022-11-09T10:16:44.166Z,12.37
2022-11-09T10:19:23.658Z,12.38
2022-11-09T10:21:50.711Z,12.42
2022-11-09T10:24:48.521Z,12.44
2022-11-09T10:27:20.476Z,12.47
2022-11-09T10:29:50.621Z,12.44
2022-11-09T10:32:23.578Z,12.41
2022-11-09T10:35:13.019Z,12.38
2022-11-09T10:37:39.947Z,12.36
2022-11-09T10:40:17.269Z,12.36
2022-11-09T10:43:10.542Z,12.36
2022-11-09T10:46:05.291Z,12.37
2022-11-09T10:48:53.532Z,12.37
2022-11-09T10:51:46.789Z,12.39
2022-11-09T10:54:38.348Z,12.41
2022-11-09T10:57:25.987Z,12.41
2022-11-09T11:00:17.317Z,12.39
2022-11-09T11:03:35.964Z,12.38
2022-11-09T11:06:21.394Z,12.38
2022-11-09T11:09:07.954Z,12.38
2022-11-09T11:12:22.662Z,12.37
2022-11-09T11:15:29.133Z,12.37
2022-11-09T11:18:23.336Z,12.34
2022-11-09T11:21:19.391Z,12.32
2022-11-09T11:24:16.941Z,12.34
2022-11-09T11:27:10.914Z,12.36
2022-11-09T11:30:11.663Z,12.40
2022-11-09T11:32:59.211Z,12.48
2022-11-09T11:36:01.465Z,12.52
2022-11-09T11:38:58.290Z,12.57
2022-11-09T11:41:56.119Z,12.59
2022-11-09T11:45:18.504Z,12.62
2022-11-09T11:48:28.855Z,12.63
2022-11-09T11:51:18.017Z,12.63
2022-11-09T11:54:34.794Z,12.61
2022-11-09T11:57:58.439Z,12.64
2022-11-09T12:01:14.172Z,12.65
2022-11-09T12:04:21.796Z,12.66
2022-11-09T12:07:26.377Z,12.66
2022-11-09T12:10:29.090Z,12.68
2022-11-09T12:13:43.412Z,12.71
2022-11-09T12:16:44.827Z,12.74
2022-11-09T12:20:04.951Z,12.77
2022-11-09T12:23:18.828Z,12.82
2022-11-09T12:26:24.387Z,12.86
2022-11-09T12:29:19.607Z,12.88
2022-11-09T12:32:25.808Z,12.90
2022-11-09T12:35:50.986Z,12.89
2022-11-09T12:38:46.128Z,12.87
2022-11-09T12:41:37.477Z,12.86
2022-11-09T12:44:29.285Z,12.83
2022-11-09T12:47:20.637Z,12.81
2022-11-09T12:50:13.084Z,12.80
2022-11-09T12:53:02.530Z,12.77
2022-11-09T12:55:52.212Z,12.76
2022-11-09T12:58:40.851Z,12.74
2022-11-09T13:01:29.850Z,12.71
2022-11-09T13:04:21.397Z,12.66
2022-11-09T13:07:08.497Z,12.61
2022-11-09T13:09:57.447Z,12.55
2022-11-09T13:12:43.465Z,12.50
2022-11-09T13:15:33.754Z,12.50
2022-11-09T13:18:35.430Z,12.50
2022-11-09T13:21:21.766Z,12.49
2022-11-09T13:24:32.710Z,12.49
2022-11-09T13:27:48.892Z,12.50
2022-11-09T13:30:43.210Z,12.52
2022-11-09T13:33:33.441Z,12.48
2022-11-09T13:36:20.716Z,12.44
2022-11-09T13:39:29.931Z,12.41
2022-11-09T13:42:30.483Z,12.39
2022-11-09T13:45:30.236Z,12.38
2022-11-09T13:48:34.895Z,12.37
2022-11-09T13:51:22.639Z,12.37
2022-11-09T13:54:34.811Z,12.37
2022-11-09T13:57:22.531Z,12.37
2022-11-09T14:00:19.044Z,12.36
2022-11-09T14:03:26.466Z,12.33
2022-11-09T14:06:14.040Z,12.28
2022-11-09T14:09:26.267Z,12.24
2022-11-09T14:12:43.930Z,12.22
2022-11-09T14:15:50.244Z,12.19
2022-11-09T14:19:14.539Z,12.17
2022-11-09T14:22:00.557Z,12.15
2022-11-09T14:24:47.315Z,12.11
2022-11-09T14:27:34.293Z,12.04
2022-11-09T14:30:23.715Z,12.02
2022-11-09T14:33:35.071Z,11.99
2022-11-09T14:36:21.050Z,11.99
2022-11-09T14:39:23.410Z,12.00
2022-11-09T14:42:19.186Z,11.98
2022-11-09T14:45:08.298Z,11.97
2022-11-09T14:47:58.675Z,11.96
2022-11-09T14:50:45.835Z,11.94
2022-11-09T14:53:36.237Z,11.89
2022-11-09T14:56:46.859Z,11.80
2022-11-09T14:59:56.694Z,11.76
2022-11-09T15:02:42.755Z,11.76
2022-11-09T15:05:47.003Z,11.75
2022-11-09T15:08:32.823Z,11.74
2022-11-09T15:11:19.371Z,11.73
2022-11-09T15:14:34.924Z,11.72
2022-11-09T15:17:27.832Z,11.70
2022-11-09T15:20:13.965Z,11.72
2022-11-09T15:23:04.391Z,11.72
2022-11-09T15:25:52.062Z,11.71
2022-11-09T15:28:50.272Z,11.71
2022-11-09T15:31:36.864Z,11.72
2022-11-09T15:34:27.853Z,11.71
2022-11-09T15:37:30.635Z,11.71
2022-11-09T15:40:20.410Z,11.73
2022-11-09T15:43:30.700Z,11.75
2022-11-09T15:46:30.758Z,11.77
2022-11-09T15:49:19.724Z,11.77
2022-11-09T15:52:06.536Z,11.78
2022-11-09T15:54:52.278Z,11.79
2022-11-09T15:57:38.588Z,11.77
2022-11-09T16:00:24.625Z,11.74
2022-11-09T16:03:12.400Z,11.74
2022-11-09T16:05:59.703Z,11.75
2022-11-09T16:08:50.558Z,11.76
2022-11-09T16:11:36.879Z,11.78
2022-11-09T16:14:23.507Z,11.78
2022-11-09T16:17:09.413Z,11.78
2022-11-09T16:19:55.220Z,11.78
2022-11-09T16:22:41.281Z,11.80
2022-11-09T16:25:27.634Z,11.79
2022-11-09T16:28:14.306Z,11.78
2022-11-09T16:31:01.291Z,11.76
2022-11-09T16:33:48.089Z,11.74
2022-11-09T16:36:34.454Z,11.71
2022-11-09T16:39:21.396Z,11.70
2022-11-09T16:42:11.022Z,11.68
2022-11-09T16:45:04.860Z,11.64
2022-11-09T16:47:57.469Z,11.62
2022-11-09T16:50:45.783Z,11.62
2022-11-09T16:53:32.350Z,11.63
2022-11-09T16:56:18.835Z,11.63
2022-11-09T16:59:05.555Z,11.64
2022-11-09T17:01:53.934Z,11.64
2022-11-09T17:04:40.555Z,11.64
2022-11-09T17:07:26.890Z,11.63
2022-11-09T17:10:13.547Z,11.62
2022-11-09T17:12:59.494Z,11.62
2022-11-09T17:15:49.947Z,11.61
2022-11-09T17:18:38.098Z,11.60
2022-11-09T17:21:25.852Z,11.58
2022-11-09T17:24:11.705Z,11.57
2022-11-09T17:26:57.884Z,11.56
2022-11-09T17:29:44.041Z,11.54
2022-11-09T17:32:30.032Z,11.51
2022-11-09T17:35:15.878Z,11.49
2022-11-09T17:38:01.576Z,11.46
2022-11-09T17:40:47.405Z,11.44
2022-11-09T17:43:35.971Z,11.43
2022-11-09T17:46:22.743Z,11.41
2022-11-09T17:49:10.448Z,11.40
2022-11-09T17:51:57.246Z,11.40
2022-11-09T17:54:43.681Z,11.40
2022-11-09T17:57:29.295Z,11.40
2022-11-09T18:00:16.012Z,11.39
2022-11-09T18:03:01.570Z,11.39
2022-11-09T18:05:48.206Z,11.39
2022-11-09T18:08:34.004Z,11.40
2022-11-09T18:11:20.161Z,11.40
2022-11-09T18:14:07.259Z,11.40
2022-11-09T18:16:53.267Z,11.39
2022-11-09T18:19:39.890Z,11.38
2022-11-09T18:22:25.690Z,11.37
2022-11-09T18:25:12.808Z,11.38
2022-11-09T18:27:59.398Z,11.39
2022-11-09T18:30:45.824Z,11.40
2022-11-09T18:33:32.628Z,11.39
2022-11-09T18:36:22.124Z,11.37
2022-11-09T18:39:08.202Z,11.34
2022-11-09T18:41:55.086Z,11.31
2022-11-09T18:44:40.867Z,11.29
2022-11-09T18:47:26.639Z,11.28
2022-11-09T18:50:12.776Z,11.28
2022-11-09T18:52:58.733Z,11.29
2022-11-09T18:55:44.754Z,11.29
2022-11-09T18:58:31.760Z,11.30
2022-11-09T19:01:17.607Z,11.30
2022-11-09T19:04:03.574Z,11.27
2022-11-09T19:07:11.809Z,11.27
2022-11-09T19:09:57.881Z,11.28
2022-11-09T19:12:43.967Z,11.29
2022-11-09T19:15:30.606Z,11.28
2022-11-09T19:18:16.584Z,11.27
2022-11-09T19:21:03.812Z,11.25
2022-11-09T19:23:50.757Z,11.23
2022-11-09T19:26:36.746Z,11.21
2022-11-09T19:29:23.213Z,11.22
2022-11-09T19:32:09.968Z,11.24
2022-11-09T19:34:55.995Z,11.26
2022-11-09T19:37:41.772Z,11.28
2022-11-09T19:40:47.113Z,11.29
2022-11-09T19:43:33.124Z,11.29
2022-11-09T19:46:22.089Z,11.27
2022-11-09T19:49:09.669Z,11.27
2022-11-09T19:51:56.675Z,11.29
2022-11-09T19:54:43.646Z,11.30
2022-11-09T19:57:29.843Z,11.32
2022-11-09T20:00:16.799Z,11.34
2022-11-09T20:03:03.738Z,11.34
2022-11-09T20:05:55.533Z,11.33
2022-11-09T20:08:42.174Z,11.34
2022-11-09T20:11:48.129Z,11.34
2022-11-09T20:14:34.676Z,11.34
2022-11-09T20:17:21.339Z,11.34
2022-11-09T20:20:08.633Z,11.36
2022-11-09T20:22:54.652Z,11.36
2022-11-09T20:25:41.094Z,11.32
2022-11-09T20:28:26.772Z,11.27
2022-11-09T20:31:19.611Z,11.21
2022-11-09T20:34:05.975Z,11.17
2022-11-09T20:36:52.582Z,11.11
2022-11-09T20:39:40.769Z,11.07
2022-11-09T20:42:26.655Z,11.03
2022-11-09T20:45:12.684Z,11.00
2022-11-09T20:48:10.654Z,10.97
2022-11-09T20:51:06.264Z,10.94
2022-11-09T20:53:52.536Z,10.90
2022-11-09T20:56:38.443Z,10.87
2022-11-09T20:59:24.295Z,10.84
2022-11-09T21:02:15.120Z,10.85
2022-11-09T21:05:01.056Z,10.87
2022-11-09T21:07:47.101Z,10.88
2022-11-09T21:10:33.167Z,10.87
2022-11-09T21:13:20.144Z,10.85
2022-11-09T21:16:07.416Z,10.86
2022-11-09T21:18:53.498Z,10.86
2022-11-09T21:21:40.511Z,10.85
2022-11-09T21:24:45.606Z,10.86
2022-11-09T21:27:51.286Z,10.85
2022-11-09T21:30:37.308Z,10.83
2022-11-09T21:33:23.661Z,10.80
2022-11-09T21:36:12.371Z,10.76
2022-11-09T21:38:58.156Z,10.76
2022-11-09T21:41:44.255Z,10.76
2022-11-09T21:44:32.208Z,10.75
2022-11-09T21:47:18.836Z,10.75
2022-11-09T21:50:09.714Z,10.73
2022-11-09T21:52:58.507Z,10.71
2022-11-09T21:55:44.374Z,10.70
2022-11-09T21:58:31.258Z,10.65
2022-11-09T22:01:19.113Z,10.64
2022-11-09T22:04:05.852Z,10.60
2022-11-09T22:06:52.570Z,10.57
2022-11-09T22:10:05.794Z,10.55
2022-11-09T22:13:03.673Z,10.52
2022-11-09T22:16:09.957Z,10.47
2022-11-09T22:19:14.834Z,10.41
2022-11-09T22:22:00.504Z,10.35
2022-11-09T22:24:46.701Z,10.30
2022-11-09T22:27:33.613Z,10.25
2022-11-09T22:30:19.361Z,10.23
2022-11-09T22:33:05.146Z,10.20
2022-11-09T22:35:59.238Z,10.16
2022-11-09T22:38:45.644Z,10.12
2022-11-09T22:41:32.782Z,10.06
2022-11-09T22:44:19.336Z,10.00
2022-11-09T22:47:07.958Z,9.98
2022-11-09T22:49:54.735Z,9.95
2022-11-09T22:52:41.355Z,9.95
2022-11-09T22:55:27.107Z,9.94
2022-11-09T22:58:12.945Z,9.91
2022-11-09T23:01:08.774Z,9.91
2022-11-09T23:03:54.610Z,9.89
2022-11-09T23:06:40.945Z,9.85
2022-11-09T23:09:26.916Z,9.82
2022-11-09T23:12:13.351Z,9.79
2022-11-09T23:15:05.600Z,9.76
2022-11-09T23:18:15.567Z,9.74
2022-11-09T23:21:02.058Z,9.72
2022-11-09T23:23:48.552Z,9.70
2022-11-09T23:26:35.179Z,9.66
2022-11-09T23:29:21.446Z,9.64
2022-11-09T23:32:07.325Z,9.63
2022-11-09T23:34:53.719Z,9.64
2022-11-09T23:37:40.067Z,9.63
2022-11-09T23:40:26.306Z,9.63
2022-11-09T23:43:13.946Z,9.62
2022-11-09T23:46:06.884Z,9.59
2022-11-09T23:48:53.620Z,9.55
2022-11-09T23:51:40.036Z,9.55
2022-11-09T23:54:26.675Z,9.55
2022-11-09T23:57:14.678Z,9.53
